createdAt,value
2023-02-09T07:57:50.121Z,83.70
2023-02-09T08:00:19.468Z,84.60
2023-02-09T08:02:48.914Z,84.60
2023-02-09T08:05:48.494Z,84.40
2023-02-09T08:08:15.965Z,84.20
2023-02-09T08:10:43.874Z,84.10
2023-02-09T08:13:12.335Z,83.70
2023-02-09T08:15:55.547Z,83.30
2023-02-09T08:18:36.021Z,83.20
2023-02-09T08:21:08.006Z,82.40
2023-02-09T08:23:37.582Z,82.30
2023-02-09T08:26:13.339Z,82.10
2023-02-09T08:28:44.951Z,81.70
2023-02-09T08:31:19.672Z,81.20
2023-02-09T08:33:50.447Z,81.50
2023-02-09T08:36:20.724Z,80.70
2023-02-09T08:38:48.346Z,80.60
2023-02-09T08:41:18.337Z,80.50
2023-02-09T08:43:52.305Z,80.00
2023-02-09T08:46:20.102Z,80.10
2023-02-09T08:48:47.850Z,79.70
2023-02-09T08:51:17.670Z,79.40
2023-02-09T08:53:52.275Z,78.90
2023-02-09T08:56:22.639Z,79.10
2023-02-09T08:58:50.858Z,78.60
2023-02-09T09:01:18.850Z,78.40
2023-02-09T09:03:46.441Z,78.20
2023-02-09T09:06:13.955Z,77.70
2023-02-09T09:08:41.375Z,77.20
2023-02-09T09:11:13.016Z,76.70
2023-02-09T09:13:41.856Z,76.20
2023-02-09T09:16:20.143Z,76.20
2023-02-09T09:18:48.340Z,75.80
2023-02-09T09:21:18.996Z,75.20
2023-02-09T09:23:47.577Z,75.10
2023-02-09T09:26:17.272Z,74.10
2023-02-09T09:28:48.802Z,74.20
2023-02-09T09:31:18.656Z,73.70
2023-02-09T09:33:46.845Z,73.30
2023-02-09T09:36:17.316Z,72.60
2023-02-09T09:38:44.749Z,71.80
2023-02-09T09:41:38.006Z,71.80
2023-02-09T09:44:35.302Z,70.60
2023-02-09T09:47:18.243Z,70.00
2023-02-09T09:49:46.170Z,70.20
2023-02-09T09:52:40.226Z,69.60
2023-02-09T09:55:20.863Z,69.30
2023-02-09T09:57:48.568Z,69.10
2023-02-09T10:00:37.696Z,68.10
2023-02-09T10:03:22.775Z,67.70
2023-02-09T10:06:12.216Z,66.50
2023-02-09T10:09:06.991Z,66.20
2023-02-09T10:11:54.964Z,65.00
2023-02-09T10:14:23.710Z,64.70
2023-02-09T10:16:51.187Z,64.70
2023-02-09T10:19:29.171Z,63.50
2023-02-09T10:21:57.114Z,62.70
2023-02-09T10:24:34.328Z,62.90
2023-02-09T10:27:08.256Z,62.40
2023-02-09T10:29:36.382Z,61.40
2023-02-09T10:32:40.737Z,61.40
2023-02-09T10:35:41.569Z,60.20
2023-02-09T10:38:23.145Z,60.00
2023-02-09T10:40:51.030Z,59.10
2023-02-09T10:43:34.667Z,58.70
2023-02-09T10:46:16.452Z,57.50
2023-02-09T10:48:47.267Z,57.90
2023-02-09T10:51:31.350Z,56.70
2023-02-09T10:54:08.148Z,57.40
2023-02-09T10:56:48.961Z,57.90
2023-02-09T10:59:25.445Z,56.00
2023-02-09T11:02:02.055Z,57.00
2023-02-09T11:04:41.393Z,55.30
2023-02-09T11:07:20.422Z,54.70
2023-02-09T11:09:51.768Z,54.80
2023-02-09T11:12:22.964Z,53.50
2023-02-09T11:14:50.480Z,53.20
2023-02-09T11:17:40.072Z,53.70
2023-02-09T11:20:35.799Z,53.30
2023-02-09T11:23:47.218Z,51.60
2023-02-09T11:26:55.069Z,51.80
2023-02-09T11:29:50.022Z,51.80
2023-02-09T11:32:44.112Z,50.70
2023-02-09T11:35:19.965Z,49.50
2023-02-09T11:38:10.833Z,48.80
2023-02-09T11:40:52.610Z,49.20
2023-02-09T11:43:41.123Z,49.60
2023-02-09T11:46:22.193Z,48.10
2023-02-09T11:49:16.319Z,47.30
2023-02-09T11:51:46.112Z,47.10
2023-02-09T11:54:23.042Z,47.70
2023-02-09T11:57:01.121Z,47.70
2023-02-09T11:59:56.396Z,45.90
2023-02-09T12:02:53.509Z,45.60
2023-02-09T12:05:22.717Z,44.80
2023-02-09T12:08:55.953Z,44.80
2023-02-09T12:12:16.145Z,43.50
2023-02-09T12:15:22.679Z,43.10
2023-02-09T12:18:12.821Z,43.10
2023-02-09T12:20:57.851Z,44.00
2023-02-09T12:23:39.317Z,43.20
2023-02-09T12:26:15.264Z,43.00
2023-02-09T12:28:52.213Z,43.40
2023-02-09T12:31:28.125Z,42.70
2023-02-09T12:33:58.436Z,41.90
2023-02-09T12:36:35.384Z,42.10
2023-02-09T12:39:25.798Z,42.50
2023-02-09T12:41:56.087Z,40.90
2023-02-09T12:44:23.127Z,41.80
2023-02-09T12:46:56.809Z,41.90
2023-02-09T12:49:33.296Z,42.00
2023-02-09T12:52:03.516Z,41.20
2023-02-09T12:54:57.967Z,40.40
2023-02-09T12:57:26.090Z,40.00
2023-02-09T12:59:53.215Z,40.00
2023-02-09T13:02:50.599Z,39.10
2023-02-09T13:05:44.874Z,38.80
2023-02-09T13:08:22.594Z,38.60
2023-02-09T13:11:53.137Z,38.50
2023-02-09T13:14:22.375Z,39.10
2023-02-09T13:17:08.492Z,39.80
2023-02-09T13:21:04.512Z,39.50
2023-02-09T13:24:19.293Z,39.40
2023-02-09T13:26:57.946Z,40.40
2023-02-09T13:29:33.482Z,39.60
2023-02-09T13:32:16.347Z,40.10
2023-02-09T13:35:27.204Z,39.60
2023-02-09T13:38:03.268Z,40.70
2023-02-09T13:40:34.839Z,40.10
2023-02-09T13:43:11.055Z,41.10
2023-02-09T13:45:51.804Z,41.10
2023-02-09T13:48:39.064Z,41.00
2023-02-09T13:51:20.309Z,42.10
2023-02-09T13:54:02.941Z,43.20
2023-02-09T13:56:34.672Z,42.50
2023-02-09T13:59:02.082Z,42.40
2023-02-09T14:01:36.355Z,43.10
2023-02-09T14:04:26.248Z,43.20
2023-02-09T14:07:10.532Z,42.80
2023-02-09T14:10:14.174Z,43.80
2023-02-09T14:13:10.024Z,44.10
2023-02-09T14:16:04.561Z,44.60
2023-02-09T14:18:52.101Z,44.60
2023-02-09T14:21:45.572Z,45.00
2023-02-09T14:24:23.815Z,45.70
2023-02-09T14:27:16.530Z,45.70
2023-02-09T14:29:49.134Z,45.60
2023-02-09T14:32:42.981Z,46.30
2023-02-09T14:35:26.028Z,46.30
2023-02-09T14:37:58.871Z,46.30
2023-02-09T14:40:30.827Z,46.50
2023-02-09T14:43:19.853Z,46.90
2023-02-09T14:45:59.847Z,46.90
2023-02-09T14:48:31.200Z,47.00
2023-02-09T14:51:13.168Z,47.20
2023-02-09T14:53:43.100Z,47.30
2023-02-09T14:56:31.727Z,47.70
2023-02-09T14:58:59.119Z,47.80
2023-02-09T15:01:26.603Z,48.30
2023-02-09T15:03:53.968Z,48.40
2023-02-09T15:06:21.533Z,48.40
2023-02-09T15:08:48.982Z,48.40
2023-02-09T15:11:42.677Z,48.40
2023-02-09T15:14:11.315Z,48.30
2023-02-09T15:16:38.778Z,48.50
2023-02-09T15:19:16.411Z,48.50
2023-02-09T15:21:43.709Z,49.30
2023-02-09T15:24:11.042Z,49.10
2023-02-09T15:26:38.748Z,49.70
2023-02-09T15:29:16.378Z,49.80
2023-02-09T15:31:43.835Z,49.50
2023-02-09T15:34:17.229Z,49.40
2023-02-09T15:37:00.116Z,49.70
2023-02-09T15:39:34.946Z,49.70
2023-02-09T15:42:21.484Z,50.00
2023-02-09T15:45:08.139Z,50.20
2023-02-09T15:47:52.777Z,50.30
2023-02-09T15:50:20.227Z,50.10
2023-02-09T15:52:47.909Z,51.10
2023-02-09T15:55:21.352Z,50.70
2023-02-09T15:57:52.583Z,50.00
2023-02-09T16:00:26.427Z,50.60
2023-02-09T16:02:58.690Z,50.50
2023-02-09T16:05:30.209Z,50.40
2023-02-09T16:07:59.115Z,50.10
2023-02-09T16:10:30.200Z,50.20
2023-02-09T16:12:58.554Z,49.70
2023-02-09T16:15:27.440Z,50.00
2023-02-09T16:17:54.830Z,49.90
2023-02-09T16:20:23.718Z,49.50
2023-02-09T16:22:57.442Z,49.80
2023-02-09T16:25:27.113Z,49.80
2023-02-09T16:27:56.647Z,49.90
2023-02-09T16:30:34.761Z,50.00
2023-02-09T16:33:02.066Z,50.10
2023-02-09T16:35:31.379Z,50.20
2023-02-09T16:37:59.296Z,50.30
2023-02-09T16:40:32.463Z,50.90
2023-02-09T16:43:01.857Z,50.50
2023-02-09T16:45:35.157Z,50.60
2023-02-09T16:48:02.924Z,50.90
2023-02-09T16:50:39.924Z,51.10
2023-02-09T16:53:36.361Z,51.40
2023-02-09T16:56:10.317Z,51.50
2023-02-09T16:58:39.613Z,51.80
2023-02-09T17:01:25.182Z,51.90
2023-02-09T17:03:56.850Z,52.10
2023-02-09T17:06:29.330Z,52.30
2023-02-09T17:08:56.731Z,52.50
2023-02-09T17:11:28.288Z,52.60
2023-02-09T17:13:55.818Z,52.70
2023-02-09T17:16:39.213Z,52.90
2023-02-09T17:19:15.830Z,53.50
2023-02-09T17:21:43.348Z,54.00
2023-02-09T17:24:17.259Z,54.90
2023-02-09T17:26:44.938Z,55.00
2023-02-09T17:29:12.351Z,55.20
2023-02-09T17:31:52.946Z,55.60
2023-02-09T17:34:26.965Z,56.10
2023-02-09T17:36:58.650Z,56.50
2023-02-09T17:39:26.050Z,57.00
2023-02-09T17:41:53.571Z,57.60
2023-02-09T17:44:44.612Z,57.90
2023-02-09T17:47:19.980Z,58.20
2023-02-09T17:49:47.724Z,58.70
2023-02-09T17:52:21.027Z,58.80
2023-02-09T17:54:49.400Z,59.40
2023-02-09T17:57:18.109Z,59.60
2023-02-09T17:59:46.820Z,60.20
2023-02-09T18:02:20.503Z,60.40
2023-02-09T18:04:47.831Z,60.40
2023-02-09T18:07:20.404Z,60.90
2023-02-09T18:09:47.970Z,61.20
2023-02-09T18:12:26.598Z,61.50
2023-02-09T18:14:54.885Z,62.00
2023-02-09T18:17:22.233Z,61.70
2023-02-09T18:19:49.660Z,62.40
2023-02-09T18:22:17.901Z,61.70
2023-02-09T18:24:45.712Z,62.40
2023-02-09T18:27:25.490Z,62.40
2023-02-09T18:29:53.080Z,62.50
2023-02-09T18:32:23.825Z,62.20
2023-02-09T18:34:51.135Z,61.90
2023-02-09T18:37:18.533Z,62.50
2023-02-09T18:39:46.713Z,62.40
2023-02-09T18:42:16.523Z,62.70
2023-02-09T18:44:43.959Z,62.60
2023-02-09T18:47:11.483Z,63.20
2023-02-09T18:49:39.309Z,62.50
2023-02-09T18:52:08.386Z,62.50
2023-02-09T18:54:36.150Z,63.20
2023-02-09T18:57:03.521Z,63.30
2023-02-09T18:59:32.430Z,63.30
2023-02-09T19:02:01.166Z,62.90
2023-02-09T19:04:28.845Z,62.80
2023-02-09T19:06:56.186Z,63.00
2023-02-09T19:09:23.519Z,63.30
2023-02-09T19:11:50.839Z,63.40
2023-02-09T19:14:36.713Z,63.50
2023-02-09T19:17:08.255Z,63.60
2023-02-09T19:19:35.761Z,64.40
2023-02-09T19:22:03.179Z,64.00
2023-02-09T19:24:30.641Z,64.70
2023-02-09T19:26:58.079Z,64.40
2023-02-09T19:29:25.768Z,64.30
2023-02-09T19:31:55.665Z,65.10
2023-02-09T19:34:23.775Z,65.20
2023-02-09T19:36:51.502Z,65.40
2023-02-09T19:39:19.310Z,66.10
2023-02-09T19:41:48.975Z,66.00
2023-02-09T19:44:16.451Z,65.80
2023-02-09T19:46:43.910Z,65.90
2023-02-09T19:49:11.378Z,66.40
2023-02-09T19:51:38.719Z,66.60
2023-02-09T19:54:06.091Z,66.80
2023-02-09T19:56:33.381Z,67.80
2023-02-09T19:59:01.253Z,66.60
2023-02-09T20:01:31.344Z,66.60
2023-02-09T20:03:58.983Z,66.40
2023-02-09T20:06:26.470Z,66.70
2023-02-09T20:08:53.755Z,66.60
2023-02-09T20:11:21.898Z,66.50
2023-02-09T20:13:54.470Z,67.00
2023-02-09T20:16:27.440Z,67.50
2023-02-09T20:18:55.112Z,67.80
2023-02-09T20:21:25.836Z,67.80
2023-02-09T20:23:57.734Z,67.80
2023-02-09T20:26:30.119Z,68.10
2023-02-09T20:28:58.614Z,68.30
2023-02-09T20:31:36.761Z,67.60
2023-02-09T20:34:09.296Z,68.10
2023-02-09T20:36:42.064Z,68.20
2023-02-09T20:39:15.872Z,68.50
2023-02-09T20:42:06.910Z,68.20
2023-02-09T20:44:53.955Z,68.80
2023-02-09T20:47:21.257Z,68.60
2023-02-09T20:49:48.746Z,68.30
2023-02-09T20:52:16.415Z,68.20
2023-02-09T20:54:43.725Z,68.20
2023-02-09T20:57:11.023Z,67.90
2023-02-09T20:59:46.823Z,67.80
2023-02-09T21:02:16.050Z,68.10
2023-02-09T21:04:43.545Z,67.80
2023-02-09T21:07:13.529Z,67.70
2023-02-09T21:09:40.837Z,68.60
2023-02-09T21:12:08.561Z,68.10
2023-02-09T21:14:43.909Z,68.10
2023-02-09T21:17:11.881Z,68.10
2023-02-09T21:19:40.643Z,68.20
2023-02-09T21:22:08.375Z,68.20
2023-02-09T21:24:38.959Z,68.30
2023-02-09T21:27:07.207Z,68.30
